createdAt,value
2023-05-06T00:00:59.333Z,14.81
2023-05-06T00:03:26.364Z,14.77
2023-05-06T00:05:53.063Z,14.76
2023-05-06T00:08:19.901Z,14.75
2023-05-06T00:10:46.658Z,14.75
2023-05-06T00:13:13.679Z,14.83
2023-05-06T00:15:40.773Z,14.83
2023-05-06T00:18:07.434Z,14.85
2023-05-06T00:20:34.113Z,14.81
2023-05-06T00:23:00.846Z,14.83
2023-05-06T00:25:27.326Z,14.85
2023-05-06T00:27:54.047Z,14.87
2023-05-06T00:30:20.511Z,14.74
2023-05-06T00:32:47.124Z,14.72
2023-05-06T00:35:13.736Z,14.67
2023-05-06T00:37:40.823Z,14.65
2023-05-06T00:40:08.164Z,14.60
2023-05-06T00:42:34.655Z,14.64
2023-05-06T00:45:01.268Z,14.51
2023-05-06T00:47:27.872Z,14.52
2023-05-06T00:49:54.677Z,14.51
2023-05-06T00:52:21.345Z,14.52
2023-05-06T00:54:48.588Z,14.49
2023-05-06T00:57:15.155Z,14.46
2023-05-06T00:59:42.463Z,14.47
2023-05-06T01:02:09.431Z,14.46
2023-05-06T01:04:37.420Z,14.46
2023-05-06T01:07:27.497Z,14.45
2023-05-06T01:10:02.747Z,14.38
2023-05-06T01:12:41.431Z,14.26
2023-05-06T01:15:16.879Z,14.28
2023-05-06T01:17:46.286Z,14.22
2023-05-06T01:20:15.157Z,14.16
2023-05-06T01:22:42.416Z,14.15
2023-05-06T01:25:21.422Z,14.15
2023-05-06T01:27:48.472Z,14.11
2023-05-06T01:30:17.848Z,14.12
2023-05-06T01:33:20.687Z,14.03
2023-05-06T01:36:18.274Z,14.03
2023-05-06T01:39:20.317Z,13.98
2023-05-06T01:42:10.044Z,13.92
2023-05-06T01:45:01.945Z,13.88
2023-05-06T01:47:28.576Z,13.84
2023-05-06T01:49:55.268Z,13.81
2023-05-06T01:52:22.206Z,13.81
2023-05-06T01:54:48.727Z,13.76
2023-05-06T01:57:15.206Z,13.72
2023-05-06T01:59:41.713Z,13.68
2023-05-06T02:02:08.377Z,13.63
2023-05-06T02:04:34.983Z,13.64
2023-05-06T02:07:01.845Z,13.57
2023-05-06T02:09:28.402Z,13.54
2023-05-06T02:11:59.807Z,13.49
2023-05-06T02:14:26.662Z,13.46
2023-05-06T02:16:53.915Z,13.41
2023-05-06T02:19:22.708Z,13.43
2023-05-06T02:21:49.315Z,13.41
2023-05-06T02:24:15.870Z,13.42
2023-05-06T02:26:42.306Z,13.38
2023-05-06T02:29:08.868Z,13.32
2023-05-06T02:31:35.826Z,13.27
2023-05-06T02:34:02.375Z,13.24
2023-05-06T02:36:29.077Z,13.21
2023-05-06T02:38:56.030Z,13.13
2023-05-06T02:41:22.462Z,13.07
2023-05-06T02:43:49.155Z,13.02
2023-05-06T02:46:15.802Z,13.02
2023-05-06T02:48:42.396Z,12.97
2023-05-06T02:51:08.920Z,12.97
2023-05-06T02:53:35.494Z,12.92
2023-05-06T02:56:01.985Z,12.89
2023-05-06T02:58:28.951Z,12.85
2023-05-06T03:00:55.953Z,12.83
2023-05-06T03:03:22.726Z,12.79
2023-05-06T03:05:49.185Z,12.74
2023-05-06T03:08:16.132Z,12.74
2023-05-06T03:10:42.643Z,12.73
2023-05-06T03:13:09.337Z,12.70
2023-05-06T03:15:36.118Z,12.67
2023-05-06T03:18:03.398Z,12.67
2023-05-06T03:20:30.570Z,12.63
2023-05-06T03:22:59.054Z,12.62
2023-05-06T03:25:26.018Z,12.55
2023-05-06T03:27:53.016Z,12.57
2023-05-06T03:30:21.952Z,12.56
2023-05-06T03:32:50.859Z,12.53
2023-05-06T03:35:24.031Z,12.48
2023-05-06T03:37:55.443Z,12.41
2023-05-06T03:40:23.344Z,12.38
2023-05-06T03:42:50.576Z,12.28
2023-05-06T03:45:17.207Z,12.31
2023-05-06T03:47:44.971Z,12.30
2023-05-06T03:50:12.064Z,12.27
2023-05-06T03:52:39.539Z,12.32
2023-05-06T03:55:06.916Z,12.24
2023-05-06T03:57:34.829Z,12.31
2023-05-06T04:00:01.426Z,12.19
2023-05-06T04:02:29.405Z,12.22
2023-05-06T04:04:57.569Z,12.14
2023-05-06T04:07:24.077Z,12.01
2023-05-06T04:09:50.595Z,12.01
2023-05-06T04:12:18.080Z,12.11
2023-05-06T04:14:45.451Z,12.10
2023-05-06T04:17:12.719Z,12.04
2023-05-06T04:19:39.306Z,12.11
2023-05-06T04:22:05.891Z,12.07
2023-05-06T04:24:33.820Z,12.03
2023-05-06T04:27:03.213Z,12.08
2023-05-06T04:29:30.296Z,12.05
2023-05-06T04:32:02.918Z,12.09
2023-05-06T04:34:31.352Z,12.07
2023-05-06T04:37:01.053Z,12.01
2023-05-06T04:39:57.224Z,11.95
2023-05-06T04:42:23.759Z,11.98
2023-05-06T04:45:05.424Z,12.03
2023-05-06T04:47:34.161Z,11.87
2023-05-06T04:50:01.452Z,12.04
2023-05-06T04:52:28.638Z,11.99
2023-05-06T04:54:55.286Z,12.11
2023-05-06T04:57:22.646Z,12.17
2023-05-06T04:59:51.715Z,12.23
2023-05-06T05:02:18.418Z,12.25
2023-05-06T05:04:45.964Z,12.29
2023-05-06T05:07:12.575Z,12.32
2023-05-06T05:09:39.174Z,12.35
2023-05-06T05:12:07.295Z,12.40
2023-05-06T05:14:37.823Z,12.40
2023-05-06T05:17:04.861Z,12.45
2023-05-06T05:19:31.409Z,12.52
2023-05-06T05:21:58.312Z,12.61
2023-05-06T05:24:25.961Z,12.67
2023-05-06T05:26:52.532Z,12.74
2023-05-06T05:29:19.797Z,12.78
2023-05-06T05:31:47.485Z,12.85
2023-05-06T05:34:14.095Z,12.92
2023-05-06T05:36:40.910Z,12.91
2023-05-06T05:39:10.428Z,12.99
2023-05-06T05:41:42.702Z,13.09
2023-05-06T05:44:09.308Z,13.18
2023-05-06T05:46:36.123Z,13.21
2023-05-06T05:49:04.329Z,13.13
2023-05-06T05:51:31.153Z,13.25
2023-05-06T05:53:58.267Z,13.27
2023-05-06T05:56:26.188Z,13.26
2023-05-06T05:58:53.590Z,13.30
2023-05-06T06:01:20.389Z,13.31
2023-05-06T06:03:47.457Z,13.54
2023-05-06T06:06:14.142Z,13.60
2023-05-06T06:08:41.508Z,13.67
2023-05-06T06:11:08.867Z,13.87
2023-05-06T06:13:39.936Z,13.88
2023-05-06T06:16:07.687Z,13.76
2023-05-06T06:18:34.268Z,13.79
2023-05-06T06:21:00.923Z,13.92
2023-05-06T06:23:27.439Z,13.98
2023-05-06T06:25:53.958Z,13.96
2023-05-06T06:28:21.266Z,14.07
2023-05-06T06:30:47.856Z,14.07
2023-05-06T06:33:14.449Z,14.08
2023-05-06T06:35:41.015Z,14.24
2023-05-06T06:38:07.470Z,14.33
2023-05-06T06:40:34.058Z,14.42
2023-05-06T06:43:01.107Z,14.49
2023-05-06T06:45:48.292Z,14.58
2023-05-06T06:48:15.342Z,14.73
2023-05-06T06:50:42.339Z,14.82
2023-05-06T06:53:09.716Z,14.74
2023-05-06T06:55:36.219Z,14.89
2023-05-06T06:58:02.943Z,14.98
2023-05-06T07:00:29.421Z,15.04
2023-05-06T07:02:56.207Z,15.09
2023-05-06T07:05:22.885Z,15.18
2023-05-06T07:07:49.458Z,15.11
2023-05-06T07:10:16.097Z,15.08
2023-05-06T07:12:42.663Z,15.16
2023-05-06T07:15:09.743Z,15.31
2023-05-06T07:17:36.527Z,15.57
2023-05-06T07:20:03.388Z,15.73
2023-05-06T07:22:30.132Z,16.04
2023-05-06T07:24:56.662Z,16.14
2023-05-06T07:27:24.079Z,16.26
2023-05-06T07:29:50.921Z,16.48
2023-05-06T07:32:17.552Z,16.39
2023-05-06T07:34:44.029Z,16.32
2023-05-06T07:37:10.464Z,16.47
2023-05-06T07:39:37.194Z,16.44
2023-05-06T07:42:03.764Z,16.55
2023-05-06T07:44:30.236Z,16.71
2023-05-06T07:46:56.961Z,16.51
2023-05-06T07:49:24.073Z,16.67
2023-05-06T07:51:51.084Z,16.78
2023-05-06T07:54:17.618Z,16.99
2023-05-06T07:56:44.065Z,17.01
2023-05-06T07:59:11.730Z,17.27
2023-05-06T08:01:38.184Z,17.19
2023-05-06T08:04:04.860Z,17.45
2023-05-06T08:06:32.388Z,17.32
2023-05-06T08:08:59.458Z,17.59
2023-05-06T08:11:25.992Z,17.80
2023-05-06T08:13:52.518Z,17.99
2023-05-06T08:16:19.179Z,18.12
2023-05-06T08:18:45.636Z,17.83
2023-05-06T08:21:12.103Z,18.08
2023-05-06T08:23:38.574Z,17.83
2023-05-06T08:26:05.001Z,18.20
2023-05-06T08:28:31.567Z,17.85
2023-05-06T08:30:58.083Z,18.17
2023-05-06T08:33:24.577Z,18.25
2023-05-06T08:35:52.030Z,18.22
2023-05-06T08:38:18.531Z,18.05
2023-05-06T08:40:45.119Z,18.32
2023-05-06T08:43:14.906Z,18.30
2023-05-06T08:45:45.386Z,18.47
2023-05-06T08:48:12.475Z,19.03
2023-05-06T08:50:43.252Z,19.39
2023-05-06T08:53:13.578Z,19.05
2023-05-06T08:55:44.115Z,19.44
2023-05-06T08:58:13.320Z,19.92
2023-05-06T09:00:40.147Z,19.71
2023-05-06T09:03:06.778Z,19.77
2023-05-06T09:05:33.514Z,19.54
2023-05-06T09:07:59.966Z,19.16
2023-05-06T09:10:31.830Z,19.26
2023-05-06T09:12:58.358Z,19.91
2023-05-06T09:15:26.447Z,19.57
2023-05-06T09:17:54.443Z,20.02
2023-05-06T09:20:21.025Z,20.10
2023-05-06T09:22:47.562Z,19.97
2023-05-06T09:25:14.186Z,20.27
2023-05-06T09:27:40.679Z,20.79
2023-05-06T09:30:11.962Z,21.19
2023-05-06T09:32:40.172Z,21.49
2023-05-06T09:35:08.386Z,21.02
2023-05-06T09:37:37.793Z,20.54
2023-05-06T09:40:04.646Z,21.17
2023-05-06T09:42:31.438Z,20.00
2023-05-06T09:45:02.171Z,20.24
2023-05-06T09:47:32.449Z,21.25
2023-05-06T09:50:01.899Z,21.82
2023-05-06T09:52:30.148Z,22.10
2023-05-06T09:54:57.363Z,22.30
2023-05-06T09:57:24.035Z,21.82
2023-05-06T09:59:53.916Z,22.17
2023-05-06T10:02:23.461Z,22.13
2023-05-06T10:04:51.497Z,21.55
2023-05-06T10:07:22.734Z,21.86
2023-05-06T10:09:51.356Z,21.46
2023-05-06T10:12:19.850Z,21.91
2023-05-06T10:14:47.141Z,22.31
2023-05-06T10:17:14.038Z,22.96
2023-05-06T10:19:46.941Z,23.25
2023-05-06T10:22:40.333Z,23.89
2023-05-06T10:25:30.416Z,24.19
2023-05-06T10:27:57.496Z,23.30
2023-05-06T10:30:25.472Z,23.13
2023-05-06T10:32:56.488Z,24.18
2023-05-06T10:35:44.402Z,24.35
2023-05-06T10:38:10.862Z,23.66
2023-05-06T10:40:37.750Z,23.48
2023-05-06T10:43:22.413Z,24.23
2023-05-06T10:46:00.093Z,24.30
2023-05-06T10:48:27.719Z,23.73
2023-05-06T10:51:16.443Z,23.43
2023-05-06T10:54:00.214Z,24.08
2023-05-06T10:56:26.857Z,24.59
2023-05-06T10:58:55.136Z,24.64
2023-05-06T11:01:30.796Z,24.01
2023-05-06T11:03:57.558Z,24.33
2023-05-06T11:06:34.914Z,24.29
2023-05-06T11:09:01.889Z,25.36
2023-05-06T11:11:50.963Z,25.49
2023-05-06T11:14:37.766Z,25.87
2023-05-06T11:17:09.255Z,24.43
2023-05-06T11:19:37.732Z,25.77
2023-05-06T11:22:05.922Z,24.71
2023-05-06T11:24:39.440Z,24.30
2023-05-06T11:27:07.056Z,24.77
2023-05-06T11:29:33.799Z,22.90
2023-05-06T11:32:00.303Z,23.68
2023-05-06T11:34:31.879Z,23.44
2023-05-06T11:36:58.854Z,24.06
2023-05-06T11:39:30.381Z,24.83
2023-05-06T11:42:03.760Z,25.26
2023-05-06T11:44:32.388Z,26.56
2023-05-06T11:47:09.289Z,24.97
2023-05-06T11:49:41.438Z,25.63
2023-05-06T11:52:10.632Z,26.33
2023-05-06T11:54:42.248Z,24.73
2023-05-06T11:57:09.581Z,26.00
2023-05-06T11:59:39.578Z,24.67
2023-05-06T12:02:12.706Z,24.40
2023-05-06T12:04:48.253Z,26.27
2023-05-06T12:07:16.221Z,25.59
2023-05-06T12:09:48.650Z,25.14
2023-05-06T12:12:17.656Z,24.92
2023-05-06T12:14:45.188Z,25.21
2023-05-06T12:17:12.757Z,24.51
2023-05-06T12:19:39.572Z,25.36
2023-05-06T12:22:19.499Z,26.89
2023-05-06T12:24:47.810Z,27.38
2023-05-06T12:27:14.655Z,27.40
2023-05-06T12:29:52.903Z,26.61
2023-05-06T12:32:19.562Z,26.60
2023-05-06T12:34:46.091Z,26.11
2023-05-06T12:37:27.145Z,26.42
2023-05-06T12:39:55.179Z,27.75
2023-05-06T12:42:24.304Z,27.60
2023-05-06T12:44:50.995Z,27.42
2023-05-06T12:47:23.106Z,26.28
2023-05-06T12:50:00.972Z,25.86
2023-05-06T12:52:30.101Z,26.10
2023-05-06T12:54:57.147Z,26.89
2023-05-06T12:57:23.801Z,26.69
2023-05-06T12:59:50.701Z,26.19
2023-05-06T13:02:18.736Z,27.91
2023-05-06T13:04:46.889Z,26.64
2023-05-06T13:07:13.624Z,27.20
2023-05-06T13:09:40.161Z,26.55
2023-05-06T13:12:07.276Z,25.99
2023-05-06T13:14:33.988Z,26.21
2023-05-06T13:17:01.394Z,24.50
2023-05-06T13:19:32.976Z,24.60
2023-05-06T13:22:00.634Z,24.78
2023-05-06T13:24:27.551Z,25.18
2023-05-06T13:26:54.050Z,25.16
2023-05-06T13:29:20.627Z,25.21
2023-05-06T13:31:47.213Z,25.18
2023-05-06T13:34:13.806Z,26.98
2023-05-06T13:36:40.366Z,26.91
2023-05-06T13:39:07.030Z,26.77
2023-05-06T13:41:34.326Z,26.37
2023-05-06T13:44:00.982Z,25.65
2023-05-06T13:46:27.550Z,26.58
2023-05-06T13:48:54.018Z,25.71
2023-05-06T13:51:20.524Z,25.93
2023-05-06T13:53:47.110Z,24.49
2023-05-06T13:56:13.673Z,24.43
2023-05-06T13:58:40.100Z,25.93
2023-05-06T14:01:07.179Z,26.73
2023-05-06T14:03:33.715Z,26.94
2023-05-06T14:06:01.432Z,27.08
2023-05-06T14:08:27.902Z,25.83
2023-05-06T14:10:54.705Z,26.21
2023-05-06T14:13:21.319Z,26.55
2023-05-06T14:15:48.153Z,26.28
2023-05-06T14:18:14.938Z,26.26
2023-05-06T14:20:41.540Z,26.52
2023-05-06T14:23:08.356Z,26.16
2023-05-06T14:25:34.911Z,27.09
2023-05-06T14:28:01.660Z,27.38
2023-05-06T14:30:28.421Z,27.36
2023-05-06T14:32:55.120Z,27.58
2023-05-06T14:35:21.977Z,27.77
2023-05-06T14:37:48.685Z,26.96
2023-05-06T14:40:15.994Z,27.38
2023-05-06T14:42:42.718Z,27.53
2023-05-06T14:45:09.826Z,27.38
2023-05-06T14:47:36.688Z,27.86
2023-05-06T14:50:03.236Z,25.95
2023-05-06T14:52:29.779Z,26.98
2023-05-06T14:54:56.473Z,28.09
2023-05-06T14:57:23.812Z,29.16
2023-05-06T14:59:51.805Z,26.70
2023-05-06T15:02:18.431Z,26.57
2023-05-06T15:04:46.012Z,27.00
2023-05-06T15:07:12.753Z,27.22
2023-05-06T15:09:39.995Z,27.99
2023-05-06T15:12:06.765Z,29.06
2023-05-06T15:14:33.347Z,28.82
2023-05-06T15:16:59.896Z,30.07
2023-05-06T15:19:26.533Z,27.78
2023-05-06T15:21:53.028Z,29.06
2023-05-06T15:24:19.631Z,28.76
2023-05-06T15:26:46.292Z,29.14
2023-05-06T15:29:12.894Z,29.99
2023-05-06T15:31:40.765Z,30.45
2023-05-06T15:34:09.655Z,30.04
2023-05-06T15:36:38.456Z,29.23
2023-05-06T15:39:08.182Z,29.48
2023-05-06T15:41:36.125Z,28.96
2023-05-06T15:44:05.862Z,29.52
2023-05-06T15:46:33.071Z,29.65
2023-05-06T15:49:15.620Z,28.29
2023-05-06T15:51:46.847Z,28.13
2023-05-06T15:54:15.465Z,28.05
2023-05-06T15:56:41.984Z,26.97
2023-05-06T15:59:08.790Z,26.28
2023-05-06T16:04:09.604Z,27.08
2023-05-06T16:06:36.319Z,26.33
2023-05-06T16:09:02.865Z,26.40
2023-05-06T16:11:29.798Z,25.68
2023-05-06T16:13:56.582Z,26.40
2023-05-06T16:16:23.006Z,24.97
2023-05-06T16:18:49.479Z,24.79
2023-05-06T16:21:16.030Z,24.44
2023-05-06T16:23:42.470Z,24.58
2023-05-06T16:26:09.023Z,24.66
2023-05-06T16:28:35.830Z,24.74
2023-05-06T16:31:03.771Z,25.10
2023-05-06T16:33:32.916Z,25.39
2023-05-06T16:35:59.629Z,25.34
2023-05-06T16:38:26.247Z,24.92
2023-05-06T16:40:53.300Z,24.23
2023-05-06T16:43:20.151Z,23.92
2023-05-06T16:45:46.769Z,24.24
2023-05-06T16:48:14.839Z,24.02
2023-05-06T16:50:41.776Z,23.79
2023-05-06T16:53:08.659Z,24.62
2023-05-06T16:55:35.292Z,24.93
2023-05-06T16:58:02.401Z,24.77
2023-05-06T17:00:29.318Z,24.79
2023-05-06T17:02:55.991Z,24.85
2023-05-06T17:05:22.976Z,24.91
2023-05-06T17:07:50.711Z,25.04
2023-05-06T17:10:17.542Z,25.18
2023-05-06T17:12:44.497Z,25.36
2023-05-06T17:15:11.449Z,25.34
2023-05-06T17:17:39.668Z,25.11
2023-05-06T17:20:07.110Z,25.26
2023-05-06T17:22:33.839Z,25.29
2023-05-06T17:25:00.699Z,25.15
2023-05-06T17:27:27.189Z,25.08
2023-05-06T17:29:54.053Z,25.05
2023-05-06T17:32:20.714Z,24.95
2023-05-06T17:34:47.432Z,25.04
2023-05-06T17:37:14.213Z,24.82
2023-05-06T17:39:40.686Z,24.81
2023-05-06T17:42:08.332Z,24.71
2023-05-06T17:44:35.762Z,24.58
2023-05-06T17:47:02.350Z,24.49
2023-05-06T17:49:29.005Z,24.39
2023-05-06T17:51:57.307Z,24.24
2023-05-06T17:54:25.381Z,24.22
2023-05-06T17:56:52.896Z,24.13
2023-05-06T17:59:20.073Z,24.10
2023-05-06T18:01:46.737Z,24.03
2023-05-06T18:04:14.047Z,23.81
2023-05-06T18:06:41.817Z,23.55
2023-05-06T18:09:10.258Z,23.77
2023-05-06T18:11:38.090Z,23.68
2023-05-06T18:14:05.681Z,23.60
2023-05-06T18:16:32.375Z,23.46
2023-05-06T18:19:00.853Z,23.25
2023-05-06T18:21:27.852Z,23.14
2023-05-06T18:24:02.010Z,23.05
2023-05-06T18:26:44.549Z,22.99
2023-05-06T18:29:12.572Z,23.04
2023-05-06T18:31:39.457Z,22.87
2023-05-06T18:34:06.359Z,22.73
2023-05-06T18:36:34.781Z,22.68
2023-05-06T18:39:01.411Z,22.55
2023-05-06T18:41:27.907Z,22.42
2023-05-06T18:43:54.302Z,22.42
2023-05-06T18:46:21.482Z,22.30
2023-05-06T18:48:48.156Z,22.25
2023-05-06T18:51:17.899Z,22.09
2023-05-06T18:53:45.226Z,22.01
2023-05-06T18:56:11.879Z,21.92
2023-05-06T18:58:39.450Z,21.86
2023-05-06T19:01:10.614Z,21.72
2023-05-06T19:03:38.166Z,21.58
2023-05-06T19:06:08.985Z,21.44
2023-05-06T19:08:37.365Z,21.48
2023-05-06T19:11:04.065Z,21.27
2023-05-06T19:13:31.166Z,21.31
2023-05-06T19:15:57.972Z,21.19
2023-05-06T19:18:24.474Z,21.16
2023-05-06T19:20:51.201Z,20.94
2023-05-06T19:23:18.168Z,20.87
2023-05-06T19:25:44.688Z,20.78
2023-05-06T19:28:12.044Z,20.79
2023-05-06T19:30:38.556Z,20.74
2023-05-06T19:33:05.350Z,20.66
2023-05-06T19:35:31.981Z,20.64
2023-05-06T19:37:58.738Z,20.50
2023-05-06T19:40:25.531Z,20.51
2023-05-06T19:42:52.192Z,20.46
2023-05-06T19:45:19.534Z,20.38
2023-05-06T19:47:46.573Z,20.29
2023-05-06T19:50:13.405Z,20.19
2023-05-06T19:52:40.209Z,20.10
2023-05-06T19:55:07.440Z,19.98
2023-05-06T19:57:34.189Z,19.93
2023-05-06T20:00:05.133Z,19.81
2023-05-06T20:02:32.757Z,19.78
2023-05-06T20:05:00.617Z,19.62
2023-05-06T20:07:27.425Z,19.63
2023-05-06T20:09:55.958Z,19.46
2023-05-06T20:12:24.279Z,19.53
2023-05-06T20:14:50.855Z,19.29
2023-05-06T20:17:17.312Z,19.26
2023-05-06T20:19:44.922Z,19.05
2023-05-06T20:22:11.782Z,19.05
2023-05-06T20:24:38.266Z,19.04
2023-05-06T20:27:04.751Z,19.08
2023-05-06T20:29:31.518Z,18.97
2023-05-06T20:31:58.564Z,18.83
2023-05-06T20:34:25.986Z,18.89
2023-05-06T20:36:56.245Z,18.83
2023-05-06T20:39:23.715Z,18.79
2023-05-06T20:41:50.129Z,18.68
2023-05-06T20:44:16.647Z,18.70
2023-05-06T20:46:44.060Z,18.71
2023-05-06T20:49:10.940Z,18.47
2023-05-06T20:51:37.439Z,18.53
2023-05-06T20:54:04.334Z,18.51
2023-05-06T20:56:30.828Z,18.36
2023-05-06T20:58:57.335Z,18.28
2023-05-06T21:01:25.258Z,18.15
2023-05-06T21:03:52.170Z,18.03
2023-05-06T21:06:19.425Z,18.17
2023-05-06T21:08:46.520Z,18.23
2023-05-06T21:11:13.666Z,18.27
2023-05-06T21:13:41.555Z,18.09
2023-05-06T21:16:08.332Z,17.84
2023-05-06T21:18:35.146Z,18.02
2023-05-06T21:21:01.696Z,18.14
2023-05-06T21:23:28.172Z,18.02
2023-05-06T21:25:54.710Z,17.87
2023-05-06T21:28:21.734Z,17.63
2023-05-06T21:30:48.472Z,17.52
2023-05-06T21:33:14.960Z,17.77
2023-05-06T21:35:41.470Z,17.54
2023-05-06T21:38:07.914Z,17.63
2023-05-06T21:40:34.421Z,17.58
2023-05-06T21:43:01.017Z,17.52
2023-05-06T21:45:27.598Z,17.65
2023-05-06T21:47:54.124Z,17.62
2023-05-06T21:50:20.748Z,17.63
2023-05-06T21:52:47.228Z,17.71
2023-05-06T21:55:13.934Z,17.62
2023-05-06T21:57:40.586Z,17.53
2023-05-06T22:00:11.980Z,17.55
2023-05-06T22:02:40.021Z,17.44
2023-05-06T22:05:08.157Z,17.44
2023-05-06T22:07:35.695Z,17.46
2023-05-06T22:10:02.395Z,17.51
2023-05-06T22:12:28.978Z,17.40
2023-05-06T22:14:55.865Z,17.23
2023-05-06T22:17:22.458Z,17.30
2023-05-06T22:19:49.109Z,17.30
2023-05-06T22:22:16.444Z,17.23
2023-05-06T22:24:43.201Z,17.17
2023-05-06T22:27:09.858Z,17.25
2023-05-06T22:29:36.422Z,17.10
2023-05-06T22:32:03.189Z,16.97
2023-05-06T22:34:30.044Z,17.04
2023-05-06T22:36:58.363Z,16.90
2023-05-06T22:39:27.349Z,17.02
2023-05-06T22:41:53.832Z,17.06
2023-05-06T22:44:21.113Z,16.98
2023-05-06T22:46:47.895Z,16.92
2023-05-06T22:49:16.030Z,16.87
2023-05-06T22:51:42.693Z,16.82
2023-05-06T22:54:09.524Z,16.89
2023-05-06T22:56:36.013Z,16.91
2023-05-06T22:59:02.695Z,16.79
2023-05-06T23:01:32.560Z,16.51
2023-05-06T23:03:59.691Z,16.62
2023-05-06T23:06:30.733Z,16.51
2023-05-06T23:08:57.586Z,16.53
2023-05-06T23:11:24.345Z,16.54
2023-05-06T23:13:50.968Z,16.50
2023-05-06T23:16:17.635Z,16.35
2023-05-06T23:18:45.774Z,16.53
2023-05-06T23:21:12.464Z,16.54
2023-05-06T23:23:39.054Z,16.35
2023-05-06T23:26:05.613Z,16.44
2023-05-06T23:28:32.362Z,16.34
2023-05-06T23:30:58.922Z,16.37
2023-05-06T23:33:25.809Z,16.25
2023-05-06T23:35:52.350Z,16.29
2023-05-06T23:38:18.755Z,16.23
2023-05-06T23:40:45.423Z,16.24
2023-05-06T23:43:11.963Z,16.20
2023-05-06T23:45:38.566Z,16.32
2023-05-06T23:48:05.632Z,16.25
2023-05-06T23:50:32.290Z,15.99
2023-05-06T23:52:58.887Z,16.05
2023-05-06T23:55:28.330Z,16.06
2023-05-06T23:57:54.790Z,15.96
